createdAt,value
2019-05-10T00:00:24.189Z,99567.12
2019-05-10T00:03:13.281Z,99572.44
2019-05-10T00:06:02.388Z,99569.83
2019-05-10T00:08:47.784Z,99575.58
2019-05-10T00:11:34.203Z,99576.90
2019-05-10T00:14:27.231Z,99567.66
2019-05-10T00:17:00.665Z,99579.59
2019-05-10T00:19:32.065Z,99578.30
2019-05-10T00:22:04.645Z,99576.55
2019-05-10T00:24:35.912Z,99576.52
2019-05-10T00:27:07.486Z,99580.48
2019-05-10T00:29:38.896Z,99581.36
2019-05-10T00:32:10.315Z,99577.41
2019-05-10T00:34:41.824Z,99583.59
2019-05-10T00:37:13.172Z,99589.78
2019-05-10T00:39:44.689Z,99577.05
2019-05-10T00:42:16.091Z,99581.45
2019-05-10T00:44:47.525Z,99581.00
2019-05-10T00:47:18.875Z,99580.97
2019-05-10T00:49:50.146Z,99587.59
2019-05-10T00:52:21.521Z,99591.14
2019-05-10T00:54:52.820Z,99596.87
2019-05-10T00:57:24.095Z,99584.97
2019-05-10T00:59:55.410Z,99596.03
2019-05-10T01:02:26.664Z,99593.84
2019-05-10T01:04:58.043Z,99603.13
2019-05-10T01:07:29.324Z,99598.75
2019-05-10T01:10:00.615Z,99602.72
2019-05-10T01:12:31.881Z,99601.38
2019-05-10T01:15:03.469Z,99601.38
2019-05-10T01:17:34.890Z,99600.07
2019-05-10T01:20:08.080Z,99598.32
2019-05-10T01:22:39.578Z,99600.53
2019-05-10T01:25:11.897Z,99595.71
2019-05-10T01:27:43.324Z,99597.08
2019-05-10T01:30:15.522Z,99597.97
2019-05-10T01:32:46.991Z,99604.17
2019-05-10T01:35:18.327Z,99602.44
2019-05-10T01:37:49.669Z,99598.95
2019-05-10T01:40:22.252Z,99605.16
2019-05-10T01:42:53.609Z,99606.94
2019-05-10T01:45:25.304Z,99603.41
2019-05-10T01:47:56.703Z,99612.67
2019-05-10T01:50:28.112Z,99617.06
2019-05-10T01:52:59.390Z,99625.47
2019-05-10T01:55:30.743Z,99636.48
2019-05-10T01:58:02.385Z,99636.45
2019-05-10T02:00:34.882Z,99634.71
2019-05-10T02:03:06.340Z,99622.84
2019-05-10T02:05:37.666Z,99630.32
2019-05-10T02:08:09.057Z,99637.81
2019-05-10T02:10:41.383Z,99632.53
2019-05-10T02:13:12.996Z,99639.14
2019-05-10T02:15:44.504Z,99644.87
2019-05-10T02:18:15.889Z,99648.39
2019-05-10T02:20:47.276Z,99647.52
2019-05-10T02:23:18.603Z,99649.72
2019-05-10T02:26:08.345Z,99659.84
2019-05-10T02:28:25.646Z,99658.52
2019-05-10T02:30:57.010Z,99663.36
2019-05-10T02:33:28.462Z,99666.88
2019-05-10T02:35:59.790Z,99671.28
2019-05-10T02:38:31.143Z,99667.32
2019-05-10T02:41:02.631Z,99664.68
2019-05-10T02:43:33.975Z,99667.31
2019-05-10T02:46:05.600Z,99662.03
2019-05-10T02:48:36.884Z,99659.84
2019-05-10T02:51:08.173Z,99660.27
2019-05-10T02:53:39.689Z,99661.59
2019-05-10T02:56:29.694Z,99665.98
2019-05-10T02:58:48.941Z,99669.95
2019-05-10T03:01:23.308Z,99674.36
2019-05-10T03:03:55.192Z,99674.36
2019-05-10T03:06:29.237Z,99675.23
2019-05-10T03:09:06.014Z,99683.59
2019-05-10T03:11:49.205Z,99681.38
2019-05-10T03:14:20.718Z,99686.66
2019-05-10T03:16:52.894Z,99691.93
2019-05-10T03:19:24.314Z,99693.25
2019-05-10T03:22:09.351Z,99698.52
2019-05-10T03:24:40.608Z,99693.25
2019-05-10T03:27:12.018Z,99688.84
2019-05-10T03:29:43.513Z,99698.08
2019-05-10T03:32:15.017Z,99697.63
2019-05-10T03:34:47.543Z,99697.63
2019-05-10T03:37:18.946Z,99702.00
2019-05-10T03:39:50.469Z,99704.63
2019-05-10T03:42:22.056Z,99713.85
2019-05-10T03:44:59.005Z,99708.12
2019-05-10T03:47:30.435Z,99713.34
2019-05-10T03:50:01.789Z,99717.27
2019-05-10T03:52:33.181Z,99715.06
2019-05-10T03:55:05.869Z,99715.95
2019-05-10T03:57:37.411Z,99719.89
2019-05-10T04:00:13.019Z,99718.56
2019-05-10T04:02:44.474Z,99723.83
2019-05-10T04:05:16.049Z,99730.83
2019-05-10T04:07:47.503Z,99727.28
2019-05-10T04:10:20.825Z,99720.26
2019-05-10T04:12:51.917Z,99731.67
2019-05-10T04:15:23.236Z,99728.61
2019-05-10T04:17:54.588Z,99741.78
2019-05-10T04:20:25.833Z,99739.53
2019-05-10T04:23:09.103Z,99741.72
2019-05-10T04:25:40.556Z,99746.09
2019-05-10T04:28:12.018Z,99754.01
2019-05-10T04:30:43.257Z,99754.91
2019-05-10T04:33:14.539Z,99759.30
2019-05-10T04:35:45.912Z,99764.09
2019-05-10T04:38:17.486Z,99758.41
2019-05-10T04:40:48.766Z,99768.50
2019-05-10T04:43:20.090Z,99767.15
2019-05-10T04:45:51.344Z,99770.20
2019-05-10T04:48:22.707Z,99768.89
2019-05-10T04:50:54.126Z,99774.63
2019-05-10T04:53:25.518Z,99780.82
2019-05-10T04:55:56.960Z,99783.03
2019-05-10T04:58:28.289Z,99784.83
2019-05-10T05:00:59.586Z,99790.58
2019-05-10T05:03:30.891Z,99798.95
2019-05-10T05:06:02.324Z,99792.79
2019-05-10T05:08:33.620Z,99802.53
2019-05-10T05:11:05.012Z,99802.12
2019-05-10T05:13:36.303Z,99801.70
2019-05-10T05:16:07.650Z,99815.84
2019-05-10T05:18:39.169Z,99819.75
2019-05-10T05:21:10.411Z,99824.19
2019-05-10T05:23:41.698Z,99816.29
2019-05-10T05:26:13.017Z,99824.63
2019-05-10T05:28:44.301Z,99823.77
2019-05-10T05:31:15.642Z,99826.01
2019-05-10T05:33:47.159Z,99831.77
2019-05-10T05:36:18.415Z,99827.38
2019-05-10T05:38:49.752Z,99831.80
2019-05-10T05:41:21.014Z,99832.25
2019-05-10T05:43:52.258Z,99832.70
2019-05-10T05:46:23.519Z,99835.80
2019-05-10T05:48:54.792Z,99840.65
2019-05-10T05:51:26.019Z,99841.97
2019-05-10T05:53:57.326Z,99842.41
2019-05-10T05:56:28.613Z,99834.95
2019-05-10T05:58:59.975Z,99830.16
2019-05-10T06:01:31.277Z,99835.91
2019-05-10T06:04:06.216Z,99832.84
2019-05-10T06:06:36.032Z,99832.02
2019-05-10T06:09:08.446Z,99832.91
2019-05-10T06:11:39.704Z,99838.67
2019-05-10T06:14:12.850Z,99836.45
2019-05-10T06:16:44.976Z,99838.21
2019-05-10T06:23:05.067Z,99850.53
2019-05-10T06:25:38.139Z,99845.66
2019-05-10T06:27:54.912Z,99847.38
2019-05-10T06:30:26.200Z,99846.02
2019-05-10T06:33:00.965Z,99845.53
2019-05-10T06:35:30.856Z,99853.42
2019-05-10T06:38:02.309Z,99852.92
2019-05-10T06:40:37.525Z,99851.14
2019-05-10T06:43:12.922Z,99850.69
2019-05-10T06:45:39.764Z,99851.08
2019-05-10T06:48:11.117Z,99854.14
2019-05-10T06:50:42.375Z,99854.07
2019-05-10T06:53:14.115Z,99858.44
2019-05-10T06:55:45.543Z,99861.02
2019-05-10T06:58:16.827Z,99859.22
2019-05-10T07:00:48.106Z,99863.22
2019-05-10T07:03:19.555Z,99869.78
2019-05-10T07:05:50.908Z,99867.50
2019-05-10T07:08:22.269Z,99878.00
2019-05-10T07:10:53.632Z,99879.17
2019-05-10T07:13:25.058Z,99882.58
2019-05-10T07:15:56.335Z,99886.86
2019-05-10T07:18:27.868Z,99882.72
2019-05-10T07:21:00.940Z,99887.18
2019-05-10T07:23:32.296Z,99882.80
2019-05-10T07:26:03.810Z,99889.38
2019-05-10T07:28:35.268Z,99890.92
2019-05-10T07:31:06.607Z,99897.23
2019-05-10T07:33:40.106Z,99889.15
2019-05-10T07:36:15.136Z,99879.51
2019-05-10T07:38:45.189Z,99878.34
2019-05-10T07:41:19.585Z,99883.65
2019-05-10T07:44:00.763Z,99886.94
2019-05-10T07:46:32.558Z,99888.58
2019-05-10T07:49:03.945Z,99890.69
2019-05-10T07:51:35.263Z,99896.41
2019-05-10T07:54:06.827Z,99900.80
2019-05-10T07:56:45.732Z,99906.36
2019-05-10T07:59:22.083Z,99907.01
2019-05-10T08:01:50.715Z,99898.67
2019-05-10T08:04:28.848Z,99903.99
2019-05-10T08:06:55.279Z,99908.69
2019-05-10T08:09:26.536Z,99911.50
2019-05-10T08:12:03.177Z,99908.34
2019-05-10T08:14:30.782Z,99909.22
2019-05-10T08:17:06.148Z,99903.52
2019-05-10T08:19:37.541Z,99903.56
2019-05-10T08:22:09.354Z,99913.54
2019-05-10T08:24:44.542Z,99914.59
2019-05-10T08:27:14.887Z,99916.02
2019-05-10T08:29:52.869Z,99910.95
2019-05-10T08:32:24.222Z,99914.69
2019-05-10T08:34:55.750Z,99918.78
2019-05-10T08:37:37.321Z,99909.27
2019-05-10T08:40:05.352Z,99915.11
2019-05-10T08:42:47.875Z,99916.95
2019-05-10T08:45:12.401Z,99915.25
2019-05-10T08:47:43.258Z,99916.80
2019-05-10T08:50:29.315Z,99917.37
2019-05-10T08:52:47.943Z,99923.73
2019-05-10T08:55:19.594Z,99917.41
2019-05-10T08:57:52.539Z,99923.65
2019-05-10T09:00:41.544Z,99923.65
2019-05-10T09:03:01.025Z,99917.53
2019-05-10T09:05:31.893Z,99927.02
2019-05-10T09:08:05.844Z,99926.94
2019-05-10T09:10:37.083Z,99921.36
2019-05-10T09:13:08.465Z,99920.59
2019-05-10T09:15:43.244Z,99926.88
2019-05-10T09:18:12.999Z,99927.76
2019-05-10T09:20:44.490Z,99931.76
2019-05-10T09:23:19.995Z,99934.05
2019-05-10T09:25:49.095Z,99932.53
2019-05-10T09:28:21.915Z,99930.95
2019-05-10T09:31:00.376Z,99930.39
2019-05-10T09:33:26.418Z,99934.34
2019-05-10T09:35:59.345Z,99935.78
2019-05-10T09:38:37.155Z,99937.76
2019-05-10T09:41:03.916Z,99941.63
2019-05-10T09:43:42.419Z,99935.67
2019-05-10T09:46:09.085Z,99940.52
2019-05-10T09:48:44.687Z,99927.36
2019-05-10T09:51:19.082Z,99931.61
2019-05-10T09:53:48.630Z,99927.08
2019-05-10T09:56:20.193Z,99931.21
2019-05-10T09:59:07.940Z,99927.53
2019-05-10T10:01:39.562Z,99931.78
2019-05-10T10:04:11.078Z,99949.30
2019-05-10T10:06:48.262Z,99937.03
2019-05-10T10:09:17.160Z,99936.72
2019-05-10T10:11:58.099Z,99931.56
2019-05-10T10:14:22.544Z,99936.52
2019-05-10T10:16:58.168Z,99928.89
2019-05-10T10:19:27.842Z,99936.70
2019-05-10T10:21:59.341Z,99923.41
2019-05-10T10:24:30.615Z,99929.23
2019-05-10T10:27:03.142Z,99934.01
2019-05-10T10:29:38.276Z,99935.08
2019-05-10T10:32:08.071Z,99941.64
2019-05-10T10:34:43.033Z,99932.52
2019-05-10T10:37:14.835Z,99934.20
2019-05-10T10:39:47.699Z,99931.70
2019-05-10T10:42:19.002Z,99925.13
2019-05-10T10:44:50.450Z,99931.84
2019-05-10T10:47:22.816Z,99934.80
2019-05-10T10:49:54.813Z,99936.14
2019-05-10T10:52:27.797Z,99932.66
2019-05-10T10:54:59.361Z,99931.75
2019-05-10T10:57:30.670Z,99933.34
2019-05-10T11:00:02.042Z,99928.36
2019-05-10T11:02:34.128Z,99939.33
2019-05-10T11:05:07.341Z,99926.77
2019-05-10T11:07:43.041Z,99922.75
2019-05-10T11:10:18.841Z,99925.92
2019-05-10T11:12:45.489Z,99918.33
2019-05-10T11:15:26.118Z,99921.38
2019-05-10T11:17:50.663Z,99921.44
2019-05-10T11:20:22.279Z,99924.87
2019-05-10T11:22:53.647Z,99923.08
2019-05-10T11:25:24.991Z,99923.97
2019-05-10T11:27:58.552Z,99908.81
2019-05-10T11:30:29.174Z,99909.66
2019-05-10T11:33:00.585Z,99909.10
2019-05-10T11:35:34.465Z,99903.78
2019-05-10T11:38:06.567Z,99905.84
2019-05-10T11:40:38.110Z,99913.56
2019-05-10T11:43:10.073Z,99918.56
2019-05-10T11:45:44.133Z,99914.67
2019-05-10T11:48:17.201Z,99914.84
2019-05-10T11:50:51.114Z,99907.84
2019-05-10T11:53:24.014Z,99915.78
2019-05-10T11:55:55.174Z,99913.56
2019-05-10T11:58:26.513Z,99897.98
2019-05-10T12:03:31.807Z,99899.05
2019-05-10T12:06:08.814Z,99895.87
2019-05-10T12:08:36.851Z,99900.95
2019-05-10T12:11:20.701Z,99901.91
2019-05-10T12:13:41.389Z,99900.81
2019-05-10T12:16:16.860Z,99900.17
2019-05-10T12:19:01.357Z,99905.77
2019-05-10T12:21:21.768Z,99899.64
2019-05-10T12:23:56.625Z,99913.30
2019-05-10T12:26:20.249Z,99908.11
2019-05-10T12:29:11.997Z,99910.09
2019-05-10T12:31:41.485Z,99901.72
2019-05-10T12:34:16.279Z,99912.08
2019-05-10T12:36:47.659Z,99908.30
2019-05-10T12:39:21.302Z,99911.41
2019-05-10T12:41:53.130Z,99912.09
2019-05-10T12:44:24.655Z,99903.55
2019-05-10T12:46:56.238Z,99912.97
2019-05-10T12:49:28.504Z,99910.98
2019-05-10T12:51:59.841Z,99904.35
2019-05-10T12:54:31.707Z,99911.14
2019-05-10T12:57:04.171Z,99902.45
2019-05-10T12:59:36.582Z,99904.63
2019-05-10T13:02:11.106Z,99904.78
2019-05-10T13:04:41.391Z,99920.31
2019-05-10T13:07:13.780Z,99914.09
2019-05-10T13:09:50.135Z,99908.27
2019-05-10T13:12:23.349Z,99911.89
2019-05-10T13:14:54.859Z,99910.73
2019-05-10T13:17:28.368Z,99909.03
2019-05-10T13:20:02.028Z,99909.19
2019-05-10T13:22:37.608Z,99910.94
2019-05-10T13:25:08.390Z,99905.02
2019-05-10T13:27:40.095Z,99907.81
2019-05-10T13:30:12.428Z,99907.80
2019-05-10T13:32:43.981Z,99910.58
2019-05-10T13:35:15.656Z,99909.39
2019-05-10T13:37:47.312Z,99901.83
2019-05-10T13:40:18.967Z,99898.45
2019-05-10T13:42:50.383Z,99911.53
2019-05-10T13:45:21.717Z,99905.90
2019-05-10T13:47:54.260Z,99904.83
2019-05-10T13:50:25.653Z,99904.78
2019-05-10T13:52:57.477Z,99908.38
2019-05-10T13:55:29.164Z,99914.30
2019-05-10T13:58:01.010Z,99913.59
2019-05-10T14:00:34.144Z,99907.80
2019-05-10T14:03:11.405Z,99906.22
2019-05-10T14:05:40.267Z,99903.81
2019-05-10T14:08:12.091Z,99907.39
2019-05-10T14:10:43.521Z,99907.85
2019-05-10T14:13:16.776Z,99908.81
2019-05-10T14:15:48.303Z,99910.34
2019-05-10T14:18:19.775Z,99902.53
2019-05-10T14:20:51.441Z,99901.12
2019-05-10T14:23:22.949Z,99885.41
2019-05-10T14:25:54.234Z,99888.80
2019-05-10T14:28:25.699Z,99895.82
2019-05-10T14:30:58.921Z,99887.81
2019-05-10T14:33:30.639Z,99891.80
2019-05-10T14:36:03.238Z,99896.13
2019-05-10T14:38:35.269Z,99894.13
2019-05-10T14:41:10.674Z,99894.25
2019-05-10T14:43:39.613Z,99893.66
2019-05-10T14:46:13.711Z,99893.87
2019-05-10T14:48:44.525Z,99901.70
2019-05-10T14:51:15.918Z,99902.63
2019-05-10T14:53:48.027Z,99903.63
2019-05-10T14:56:19.815Z,99906.80
2019-05-10T14:58:52.033Z,99908.70
2019-05-10T15:01:23.770Z,99912.31
2019-05-10T15:03:55.680Z,99914.77
2019-05-10T15:06:30.720Z,99917.30
2019-05-10T15:09:00.486Z,99932.08
2019-05-10T15:11:33.255Z,99929.78
2019-05-10T15:14:06.205Z,99927.00
2019-05-10T15:16:37.844Z,99916.69
2019-05-10T15:19:09.193Z,99913.52
2019-05-10T15:21:40.628Z,99904.30
2019-05-10T15:24:12.344Z,99898.05
2019-05-10T15:26:46.148Z,99900.97
2019-05-10T15:29:22.414Z,99903.23
2019-05-10T15:31:51.969Z,99901.39
2019-05-10T15:34:23.695Z,99904.83
2019-05-10T15:37:10.757Z,99914.22
2019-05-10T15:39:34.096Z,99915.58
2019-05-10T15:42:05.685Z,99916.86
2019-05-10T15:44:41.549Z,99919.48
2019-05-10T15:47:20.575Z,99917.42
2019-05-10T15:49:45.873Z,99917.77
2019-05-10T15:52:18.108Z,99923.38
2019-05-10T15:54:52.668Z,99920.29
2019-05-10T15:57:24.355Z,99927.69
2019-05-10T15:59:59.097Z,99925.16
2019-05-10T16:02:29.131Z,99934.08
2019-05-10T16:05:02.229Z,99935.27
2019-05-10T16:07:34.032Z,99937.53
2019-05-10T16:10:06.673Z,99933.05
2019-05-10T16:12:43.010Z,99927.71
2019-05-10T16:15:13.911Z,99927.52
2019-05-10T16:17:44.446Z,99933.63
2019-05-10T16:20:16.141Z,99936.81
2019-05-10T16:22:47.510Z,99934.84
2019-05-10T16:25:19.061Z,99942.47
2019-05-10T16:27:50.637Z,99937.11
2019-05-10T16:30:22.187Z,99937.00
2019-05-10T16:32:53.659Z,99937.00
2019-05-10T16:35:38.107Z,99947.48
2019-05-10T16:37:57.865Z,99932.87
2019-05-10T16:40:29.146Z,99931.80
2019-05-10T16:43:00.566Z,99925.09
2019-05-10T16:45:31.907Z,99928.08
2019-05-10T16:48:05.918Z,99930.68
2019-05-10T16:50:36.613Z,99926.08
2019-05-10T16:53:08.179Z,99925.11
2019-05-10T16:55:42.748Z,99939.23
2019-05-10T16:58:15.369Z,99937.69
2019-05-10T17:00:48.048Z,99942.74
2019-05-10T17:03:20.675Z,99946.13
2019-05-10T17:05:53.899Z,99933.58
2019-05-10T17:08:25.170Z,99938.52
2019-05-10T17:10:57.846Z,99937.05
2019-05-10T17:13:29.204Z,99927.47
2019-05-10T17:16:00.690Z,99929.04
2019-05-10T17:18:32.114Z,99926.36
2019-05-10T17:21:03.393Z,99935.34
2019-05-10T17:23:34.934Z,99933.42
2019-05-10T17:26:06.205Z,99932.59
2019-05-10T17:28:40.501Z,99929.30
2019-05-10T17:31:12.135Z,99924.66
2019-05-10T17:33:44.322Z,99910.88
2019-05-10T17:36:19.758Z,99907.98
2019-05-10T17:38:53.477Z,99907.89
2019-05-10T17:41:24.888Z,99899.12
2019-05-10T17:43:57.337Z,99893.21
2019-05-10T17:46:28.819Z,99902.44
2019-05-10T17:49:00.383Z,99899.52
2019-05-10T17:51:31.725Z,99903.95
2019-05-10T17:54:03.848Z,99906.34
2019-05-10T17:56:38.728Z,99909.30
2019-05-10T17:59:11.898Z,99905.62
2019-05-10T18:01:41.760Z,99905.91
2019-05-10T18:04:14.809Z,99905.30
2019-05-10T18:06:46.170Z,99903.75
2019-05-10T18:09:17.849Z,99905.70
2019-05-10T18:11:49.362Z,99905.28
2019-05-10T18:14:21.005Z,99905.36
2019-05-10T18:16:52.271Z,99911.20
2019-05-10T18:19:26.336Z,99917.98
2019-05-10T18:22:00.832Z,99916.80
2019-05-10T18:24:36.265Z,99919.16
2019-05-10T18:27:04.068Z,99918.89
2019-05-10T18:29:35.784Z,99927.14
2019-05-10T18:32:10.829Z,99924.66
2019-05-10T18:34:40.688Z,99925.39
2019-05-10T18:37:15.895Z,99929.62
2019-05-10T18:39:47.387Z,99932.49
2019-05-10T18:42:25.467Z,99931.87
2019-05-10T18:44:54.137Z,99932.81
2019-05-10T18:47:25.281Z,99932.58
2019-05-10T18:49:56.651Z,99925.19
2019-05-10T18:52:27.924Z,99934.16
2019-05-10T18:55:06.463Z,99939.16
2019-05-10T18:57:37.780Z,99941.87
2019-05-10T19:00:10.425Z,99932.69
2019-05-10T19:02:42.022Z,99937.31
2019-05-10T19:05:13.580Z,99932.61
2019-05-10T19:07:45.000Z,99940.69
2019-05-10T19:10:16.412Z,99938.44
2019-05-10T19:12:53.799Z,99937.28
2019-05-10T19:15:20.820Z,99927.55
2019-05-10T19:17:52.060Z,99936.58
2019-05-10T19:20:23.410Z,99942.95
2019-05-10T19:22:54.832Z,99936.86
2019-05-10T19:25:26.249Z,99944.83
2019-05-10T19:27:58.687Z,99947.11
2019-05-10T19:30:30.031Z,99956.13
2019-05-10T19:33:01.353Z,99948.64
2019-05-10T19:35:35.843Z,99939.23
2019-05-10T19:38:06.270Z,99944.62
2019-05-10T19:40:37.685Z,99947.31
2019-05-10T19:43:09.446Z,99950.50
2019-05-10T19:45:40.794Z,99961.87
2019-05-10T19:48:12.889Z,99961.94
2019-05-10T19:50:44.545Z,99966.72
2019-05-10T19:53:16.274Z,99961.38
2019-05-10T19:55:51.501Z,99970.30
2019-05-10T19:58:21.527Z,99966.17
2019-05-10T20:00:53.412Z,99972.71
2019-05-10T20:03:25.300Z,99965.88
2019-05-10T20:05:57.533Z,99964.04
2019-05-10T20:08:29.159Z,99953.75
2019-05-10T20:11:01.848Z,99950.93
2019-05-10T20:13:34.589Z,99964.52
2019-05-10T20:16:06.053Z,99958.19
2019-05-10T20:18:37.777Z,99955.88
2019-05-10T20:21:09.736Z,99958.69
2019-05-10T20:23:41.703Z,99954.90
2019-05-10T20:26:13.129Z,99946.93
2019-05-10T20:28:48.412Z,99951.75
2019-05-10T20:31:20.445Z,99948.16
2019-05-10T20:33:52.303Z,99944.44
2019-05-10T20:36:24.211Z,99942.01
2019-05-10T20:38:55.966Z,99938.40
2019-05-10T20:41:27.717Z,99942.16
2019-05-10T20:43:59.848Z,99945.99
2019-05-10T20:46:31.300Z,99943.92
2019-05-10T20:49:02.716Z,99938.58
2019-05-10T20:51:35.991Z,99949.40
2019-05-10T20:54:07.634Z,99939.02
2019-05-10T20:56:40.849Z,99945.78
2019-05-10T20:59:12.281Z,99949.80
2019-05-10T21:01:44.105Z,99951.31
2019-05-10T21:04:15.719Z,99944.69
2019-05-10T21:06:47.270Z,99946.52
2019-05-10T21:09:19.059Z,99937.61
2019-05-10T21:11:50.851Z,99930.31
2019-05-10T21:14:22.541Z,99933.98
2019-05-10T21:16:54.086Z,99928.66
2019-05-10T21:19:25.726Z,99933.51
2019-05-10T21:21:57.194Z,99927.31
2019-05-10T21:24:28.887Z,99933.61
2019-05-10T21:27:00.541Z,99939.49
2019-05-10T21:29:32.107Z,99930.70
2019-05-10T21:32:03.588Z,99925.48
2019-05-10T21:34:35.037Z,99925.11
2019-05-10T21:37:06.442Z,99926.56
2019-05-10T21:39:37.980Z,99923.55
2019-05-10T21:42:09.284Z,99918.64
2019-05-10T21:44:40.560Z,99919.92
2019-05-10T21:47:11.965Z,99915.00
2019-05-10T21:49:43.273Z,99918.91
2019-05-10T21:52:14.660Z,99914.20
2019-05-10T21:54:45.895Z,99913.07
2019-05-10T21:57:17.307Z,99905.55
2019-05-10T21:59:48.872Z,99900.52
2019-05-10T22:02:20.303Z,99903.48
2019-05-10T22:04:51.666Z,99899.61
2019-05-10T22:07:23.267Z,99895.22
2019-05-10T22:09:54.498Z,99889.36
2019-05-10T22:12:25.960Z,99887.75
2019-05-10T22:14:57.195Z,99879.95
2019-05-10T22:17:28.541Z,99872.56
2019-05-10T22:19:59.847Z,99865.55
2019-05-10T22:22:31.112Z,99851.44
2019-05-10T22:25:02.351Z,99852.73
2019-05-10T22:27:34.741Z,99846.83
2019-05-10T22:30:12.129Z,99854.39
2019-05-10T22:32:42.159Z,99853.11
2019-05-10T22:35:13.573Z,99852.27
2019-05-10T22:37:44.939Z,99854.80
2019-05-10T22:40:16.481Z,99851.78
2019-05-10T22:42:47.851Z,99847.00
2019-05-10T22:45:19.328Z,99842.14
2019-05-10T22:47:50.638Z,99837.38
2019-05-10T22:50:22.051Z,99836.53
2019-05-10T22:52:53.474Z,99840.44
2019-05-10T22:55:24.815Z,99848.70
2019-05-10T22:57:56.049Z,99861.47
2019-05-10T23:00:28.518Z,99870.05
2019-05-10T23:02:59.813Z,99866.65
2019-05-10T23:05:31.079Z,99857.90
2019-05-10T23:08:02.315Z,99848.20
2019-05-10T23:10:33.713Z,99852.22
2019-05-10T23:13:05.186Z,99848.77
2019-05-10T23:15:36.832Z,99859.90
2019-05-10T23:18:08.066Z,99857.78
2019-05-10T23:20:39.427Z,99859.61
2019-05-10T23:23:10.667Z,99853.05
2019-05-10T23:25:41.953Z,99839.39
2019-05-10T23:28:13.320Z,99830.56
2019-05-10T23:30:44.608Z,99819.94
2019-05-10T23:33:15.938Z,99813.32
2019-05-10T23:35:47.244Z,99815.09
2019-05-10T23:38:18.500Z,99810.65
2019-05-10T23:40:49.728Z,99808.02
2019-05-10T23:43:21.060Z,99802.73
2019-05-10T23:45:52.296Z,99799.61
2019-05-10T23:48:23.555Z,99808.02
2019-05-10T23:50:54.785Z,99806.23
2019-05-10T23:53:26.123Z,99800.88
2019-05-10T23:55:57.367Z,99799.97
2019-05-10T23:58:28.690Z,99792.06
